createdAt,value
2023-03-18T00:53:45.294Z,8.78
2023-03-18T00:54:56.316Z,8.75
2023-03-18T00:56:06.738Z,8.74
2023-03-18T01:08:54.966Z,8.77
2023-03-18T01:10:00.407Z,8.62
2023-03-18T01:22:50.496Z,8.67
2023-03-18T01:25:16.634Z,8.63
2023-03-18T01:26:22.766Z,8.47
2023-03-18T01:27:27.566Z,8.46
2023-03-18T01:28:33.240Z,8.47
2023-03-18T01:29:37.811Z,8.46
2023-03-18T01:30:42.648Z,8.45
2023-03-18T01:31:47.342Z,8.45
2023-03-18T01:32:52.719Z,8.46
2023-03-18T01:34:06.047Z,8.45
2023-03-18T01:35:13.117Z,8.44
2023-03-18T01:36:18.063Z,8.44
2023-03-18T01:37:26.773Z,8.43
2023-03-18T01:38:35.067Z,8.42
2023-03-18T01:39:40.205Z,8.42
2023-03-18T01:40:44.686Z,8.40
2023-03-18T01:43:30.535Z,8.51
2023-03-18T01:44:39.689Z,8.38
2023-03-18T01:45:48.496Z,8.38
2023-03-18T01:46:53.580Z,8.39
2023-03-18T01:49:26.245Z,8.51
2023-03-18T01:56:33.148Z,8.40
2023-03-18T01:57:56.122Z,8.41
2023-03-18T01:59:00.122Z,8.41
2023-03-18T02:00:07.159Z,8.41
2023-03-18T02:01:28.853Z,8.41
2023-03-18T02:02:37.176Z,8.40
2023-03-18T02:04:58.218Z,8.39
2023-03-18T02:05:59.887Z,8.38
2023-03-18T02:07:04.111Z,8.36
2023-03-18T02:08:07.411Z,8.37
2023-03-18T02:09:09.817Z,8.36
2023-03-18T02:10:25.134Z,8.34
2023-03-18T02:11:33.568Z,8.33
2023-03-18T02:12:48.784Z,8.34
2023-03-18T02:14:00.865Z,8.35
2023-03-18T02:15:08.256Z,8.36
2023-03-18T03:45:49.091Z,8.72
2023-03-18T03:53:15.316Z,8.68
2023-03-18T03:54:32.883Z,8.67
2023-03-18T04:12:53.949Z,8.80
2023-03-18T04:58:19.871Z,8.84
2023-03-18T05:23:06.005Z,8.71
2023-03-18T05:24:12.964Z,8.74
2023-03-18T05:25:16.164Z,8.76
2023-03-18T05:26:18.968Z,8.81
2023-03-18T05:27:22.078Z,8.87
2023-03-18T05:28:26.899Z,8.94
2023-03-18T05:29:49.787Z,9.01
2023-03-18T05:30:54.952Z,9.11
2023-03-18T05:31:59.179Z,9.18
2023-03-18T05:33:02.141Z,9.26
2023-03-18T05:34:15.451Z,9.34
2023-03-18T05:35:19.589Z,9.44
2023-03-18T05:36:25.919Z,9.50
2023-03-18T05:37:30.111Z,9.56
2023-03-18T05:38:34.277Z,9.64
2023-03-18T05:39:38.330Z,9.70
2023-03-18T05:40:42.683Z,9.78
2023-03-18T05:41:46.852Z,9.83
2023-03-18T05:42:56.157Z,9.87
2023-03-18T05:43:55.172Z,9.94
2023-03-18T05:44:58.163Z,9.99
2023-03-18T05:46:01.249Z,10.03
2023-03-18T05:47:14.410Z,10.08
2023-03-18T05:49:47.279Z,10.30
2023-03-18T05:50:52.574Z,10.26
2023-03-18T06:13:13.140Z,11.92
2023-03-18T06:14:38.585Z,12.02
2023-03-18T06:26:19.351Z,11.77
2023-03-18T06:27:24.777Z,11.58
2023-03-18T06:28:29.731Z,11.55
2023-03-18T06:29:34.551Z,11.54
2023-03-18T06:30:40.040Z,11.51
2023-03-18T06:31:43.249Z,11.49
2023-03-18T06:32:47.580Z,11.45
2023-03-18T06:33:50.370Z,11.44
2023-03-18T06:34:53.584Z,11.41
2023-03-18T06:35:56.181Z,11.38
2023-03-18T06:38:05.497Z,11.31
2023-03-18T06:39:10.709Z,11.25
2023-03-18T06:45:41.228Z,11.07
2023-03-18T07:04:45.135Z,10.67
2023-03-18T07:05:57.234Z,10.47
2023-03-18T07:09:57.018Z,10.50
2023-03-18T07:29:07.462Z,10.28
2023-03-18T07:30:11.200Z,10.09
2023-03-18T07:31:32.023Z,10.07
2023-03-18T07:32:38.714Z,10.08
2023-03-18T07:36:32.582Z,10.20
2023-03-18T07:37:35.987Z,10.34
2023-03-18T07:39:54.491Z,10.67
2023-03-18T07:40:59.097Z,10.66
2023-03-18T07:43:37.609Z,11.01
2023-03-18T07:46:19.621Z,11.24
2023-03-18T07:48:22.998Z,11.18
2023-03-18T07:48:44.384Z,11.31
2023-03-18T07:49:49.340Z,11.43
2023-03-18T07:53:38.866Z,11.57
2023-03-18T07:56:00.776Z,11.88
2023-03-18T07:58:59.786Z,12.00
2023-03-18T08:00:05.324Z,11.88
2023-03-18T08:02:23.852Z,12.10
2023-03-18T08:07:28.609Z,12.27
2023-03-18T08:08:38.564Z,12.16
2023-03-18T08:10:59.705Z,12.34
2023-03-18T08:12:03.562Z,12.23
2023-03-18T08:13:08.856Z,12.27
2023-03-18T08:14:11.369Z,12.34
2023-03-18T08:15:14.105Z,12.35
2023-03-18T08:16:16.584Z,12.39
2023-03-18T08:17:19.020Z,12.43
2023-03-18T08:18:22.772Z,12.47
2023-03-18T08:56:05.201Z,13.12
2023-03-18T08:57:11.200Z,12.94
2023-03-18T09:12:53.913Z,13.14
2023-03-18T09:13:56.932Z,12.98
2023-03-18T09:15:02.450Z,12.99
2023-03-18T09:16:06.242Z,12.99
2023-03-18T09:17:09.436Z,12.99
2023-03-18T09:18:12.701Z,12.99
2023-03-18T09:19:16.813Z,12.98
2023-03-18T09:20:23.771Z,12.96
2023-03-18T09:21:26.852Z,12.94
2023-03-18T09:23:46.295Z,13.03
2023-03-18T09:24:49.482Z,12.84
2023-03-18T09:25:51.788Z,12.83
2023-03-18T09:26:54.273Z,12.79
2023-03-18T09:27:57.246Z,12.78
2023-03-18T09:29:00.337Z,12.77
2023-03-18T09:30:06.320Z,12.74
2023-03-18T09:31:09.326Z,12.73
2023-03-18T09:32:11.814Z,12.72
2023-03-18T09:33:17.914Z,12.70
2023-03-18T09:34:21.449Z,12.70
2023-03-18T09:35:24.669Z,12.67
2023-03-18T09:36:28.964Z,12.66
2023-03-18T09:37:33.182Z,12.64
2023-03-18T09:38:37.311Z,12.63
2023-03-18T09:39:40.345Z,12.62
2023-03-18T09:41:02.552Z,12.61
2023-03-18T09:42:21.585Z,12.61
2023-03-18T09:43:42.720Z,12.61
2023-03-18T09:44:47.364Z,12.61
2023-03-18T09:46:14.538Z,12.62
2023-03-18T09:47:44.321Z,12.61
2023-03-18T09:48:55.956Z,12.61
2023-03-18T09:50:21.601Z,12.61
2023-03-18T09:51:36.378Z,12.60
2023-03-18T09:52:44.937Z,12.58
2023-03-18T09:53:52.679Z,12.58
2023-03-18T09:55:04.349Z,12.55
2023-03-18T09:56:11.385Z,12.50
2023-03-18T09:58:44.962Z,12.52
2023-03-18T10:01:22.824Z,12.37
2023-03-18T10:02:28.948Z,12.17
2023-03-18T10:03:34.855Z,12.15
2023-03-18T10:06:11.344Z,12.22
2023-03-18T10:07:29.791Z,12.01
2023-03-18T10:10:28.240Z,11.97
2023-03-18T10:11:52.853Z,11.95
2023-03-18T10:13:17.488Z,11.91
2023-03-18T10:15:04.960Z,11.92
2023-03-18T10:22:18.321Z,11.98
2023-03-18T10:24:14.349Z,11.84
2023-03-18T10:26:18.720Z,11.87
2023-03-18T10:29:19.297Z,11.98
2023-03-18T10:30:43.026Z,11.84
2023-03-18T10:32:02.333Z,11.83
2023-03-18T10:35:07.459Z,11.93
2023-03-18T10:36:25.659Z,11.74
2023-03-18T10:39:00.223Z,11.86
2023-03-18T10:40:11.565Z,11.71
2023-03-18T10:41:24.907Z,11.70
2023-03-18T10:42:30.272Z,11.72
2023-03-18T10:43:35.196Z,11.72
2023-03-18T10:44:39.896Z,11.72
2023-03-18T10:45:45.567Z,11.72
2023-03-18T10:46:58.529Z,11.72
2023-03-18T10:48:06.781Z,11.74
2023-03-18T10:49:21.125Z,11.78
2023-03-18T10:50:32.049Z,11.83
2023-03-18T10:51:45.343Z,11.88
2023-03-18T10:53:08.815Z,11.92
2023-03-18T10:55:40.495Z,12.09
2023-03-18T10:56:42.979Z,11.96
2023-03-18T10:57:45.841Z,11.95
2023-03-18T10:58:49.658Z,11.96
2023-03-18T10:59:51.901Z,11.95
2023-03-18T11:00:56.530Z,11.94
2023-03-18T11:02:27.089Z,11.95
2023-03-18T11:04:57.516Z,12.10
2023-03-18T11:06:04.530Z,11.97
2023-03-18T11:07:13.137Z,11.97
2023-03-18T11:08:37.177Z,11.99
2023-03-18T11:09:40.123Z,11.98
2023-03-18T11:10:49.046Z,11.98
2023-03-18T11:11:58.935Z,11.97
2023-03-18T11:13:02.818Z,11.98
2023-03-18T11:14:14.969Z,11.99
2023-03-18T11:15:19.125Z,12.00
2023-03-18T11:16:32.284Z,11.98
2023-03-18T11:17:37.354Z,11.99
2023-03-18T11:18:48.719Z,11.98
2023-03-18T11:20:08.285Z,12.01
2023-03-18T11:21:14.617Z,12.01
2023-03-18T11:22:25.718Z,12.03
2023-03-18T11:23:37.443Z,12.04
2023-03-18T11:24:40.471Z,12.05
2023-03-18T11:25:49.232Z,12.06
2023-03-18T11:27:12.284Z,12.05
2023-03-18T11:28:23.586Z,12.04
2023-03-18T11:29:36.717Z,12.06
2023-03-18T11:30:58.134Z,12.06
2023-03-18T11:32:02.363Z,12.07
2023-03-18T11:33:08.025Z,12.08
2023-03-18T11:34:16.213Z,12.09
2023-03-18T11:35:42.763Z,12.11
2023-03-18T11:36:53.776Z,12.09
2023-03-18T11:38:01.389Z,12.10
2023-03-18T11:39:06.268Z,12.08
2023-03-18T11:40:15.515Z,12.09
2023-03-18T11:41:25.729Z,12.07
2023-03-18T11:42:30.330Z,12.06
2023-03-18T11:43:35.656Z,12.07
2023-03-18T11:44:37.976Z,12.06
2023-03-18T11:45:56.344Z,12.07
2023-03-18T11:47:05.704Z,12.07
2023-03-18T11:49:28.300Z,12.16
2023-03-18T11:52:09.495Z,12.15
2023-03-18T11:54:43.475Z,12.17
2023-03-18T11:57:23.431Z,12.19
2023-03-18T12:02:06.510Z,12.30
2023-03-18T12:03:38.161Z,12.20
2023-03-18T12:04:56.884Z,12.24
2023-03-18T12:06:15.520Z,12.30
2023-03-18T12:07:38.480Z,12.37
2023-03-18T12:09:01.082Z,12.40
2023-03-18T12:10:33.600Z,12.47
2023-03-18T12:11:51.803Z,12.51
2023-03-18T12:13:09.683Z,12.61
2023-03-18T12:14:15.451Z,12.68
2023-03-18T12:15:38.776Z,12.74
2023-03-18T12:16:45.806Z,12.79
2023-03-18T12:18:08.390Z,12.87
2023-03-18T12:19:31.438Z,12.93
2023-03-18T12:20:37.237Z,13.01
2023-03-18T12:21:48.808Z,13.08
2023-03-18T12:23:09.898Z,13.14
2023-03-18T12:24:28.046Z,13.21
2023-03-18T12:25:42.742Z,13.29
2023-03-18T12:26:51.507Z,13.39
2023-03-18T12:29:37.015Z,13.70
2023-03-18T12:31:04.278Z,13.63
2023-03-18T12:32:16.433Z,13.72
2023-03-18T12:33:38.695Z,13.84
2023-03-18T12:34:50.568Z,13.91
2023-03-18T12:36:05.670Z,13.99
2023-03-18T12:39:23.590Z,14.23
2023-03-18T12:40:35.612Z,14.12
2023-03-18T12:41:52.951Z,14.19
2023-03-18T12:42:59.333Z,14.25
2023-03-18T12:44:08.539Z,14.33
2023-03-18T12:46:49.253Z,14.56
2023-03-18T12:48:00.524Z,14.51
2023-03-18T12:49:18.978Z,14.71
2023-03-18T12:50:24.574Z,14.80
2023-03-18T12:51:30.180Z,14.83
2023-03-18T12:53:52.175Z,15.02
2023-03-18T12:56:43.021Z,15.09
2023-03-18T12:57:55.283Z,14.97
2023-03-18T12:59:01.089Z,14.99
2023-03-18T13:00:26.950Z,15.02
2023-03-18T13:03:31.362Z,15.17
2023-03-18T13:04:34.982Z,15.02
2023-03-18T13:06:03.794Z,15.04
2023-03-18T13:07:12.149Z,15.02
2023-03-18T13:08:33.188Z,15.03
2023-03-18T13:10:49.989Z,15.14
2023-03-18T13:12:11.832Z,14.99
2023-03-18T13:13:14.984Z,15.00
2023-03-18T13:14:33.888Z,14.98
2023-03-18T13:15:42.225Z,14.98
2023-03-18T13:16:47.507Z,14.96
2023-03-18T13:17:53.050Z,14.93
2023-03-18T13:18:57.087Z,14.91
2023-03-18T13:20:02.637Z,14.91
2023-03-18T13:21:06.145Z,14.89
2023-03-18T13:22:12.681Z,14.86
2023-03-18T13:23:18.278Z,14.86
2023-03-18T13:24:36.336Z,14.86
2023-03-18T13:25:54.212Z,14.86
2023-03-18T13:27:05.877Z,14.87
2023-03-18T13:28:28.751Z,14.85
2023-03-18T13:30:09.655Z,14.88
2023-03-18T13:31:24.485Z,14.88
2023-03-18T13:32:43.039Z,14.89
2023-03-18T13:33:52.168Z,14.87
2023-03-18T13:35:07.081Z,14.87
2023-03-18T13:36:25.416Z,14.85
2023-03-18T13:39:05.318Z,15.04
2023-03-18T13:40:45.760Z,14.95
2023-03-18T13:41:57.554Z,15.00
2023-03-18T13:43:02.972Z,15.03
2023-03-18T13:44:11.542Z,15.04
2023-03-18T13:46:45.959Z,15.17
2023-03-18T13:49:18.017Z,15.17
2023-03-18T13:50:24.236Z,15.00
2023-03-18T13:51:30.521Z,15.01
2023-03-18T13:52:41.640Z,15.02
2023-03-18T13:53:44.268Z,15.01
2023-03-18T13:54:48.526Z,15.01
2023-03-18T13:55:57.651Z,15.02
2023-03-18T13:57:29.698Z,15.05
2023-03-18T13:59:47.796Z,15.25
2023-03-18T14:02:39.968Z,15.29
2023-03-18T14:03:45.819Z,15.19
2023-03-18T14:04:49.802Z,15.25
2023-03-18T14:06:10.899Z,15.27
2023-03-18T14:07:19.551Z,15.33
2023-03-18T14:08:34.355Z,15.40
2023-03-18T14:09:49.110Z,15.44
2023-03-18T14:11:11.798Z,15.50
2023-03-18T14:12:33.008Z,15.55
2023-03-18T14:13:35.133Z,15.61
2023-03-18T14:14:56.077Z,15.62
2023-03-18T14:15:58.751Z,15.65
2023-03-18T14:17:01.623Z,15.65
2023-03-18T14:18:07.628Z,15.65
2023-03-18T14:19:21.892Z,15.65
2023-03-18T14:20:38.393Z,15.66
2023-03-18T14:21:49.593Z,15.65
2023-03-18T14:22:54.660Z,15.66
2023-03-18T14:24:17.712Z,15.66
2023-03-18T14:27:03.256Z,15.77
2023-03-18T14:28:12.187Z,15.63
2023-03-18T14:29:17.837Z,15.65
2023-03-18T14:30:32.960Z,15.63
2023-03-18T14:31:41.610Z,15.63
2023-03-18T14:32:47.454Z,15.62
2023-03-18T14:33:52.770Z,15.62
2023-03-18T14:34:58.680Z,15.62
2023-03-18T14:36:10.644Z,15.61
2023-03-18T14:37:25.980Z,15.63
2023-03-18T14:38:43.890Z,15.62
2023-03-18T14:39:48.839Z,15.60
2023-03-18T14:40:56.434Z,15.60
2023-03-18T14:42:00.586Z,15.57
2023-03-18T14:43:18.307Z,15.53
2023-03-18T14:44:29.737Z,15.51
2023-03-18T14:45:35.266Z,15.51
2023-03-18T14:46:41.290Z,15.49
2023-03-18T14:48:01.811Z,15.46
2023-03-18T14:50:45.475Z,15.57
2023-03-18T14:51:48.294Z,15.38
2023-03-18T14:54:12.873Z,15.46
2023-03-18T14:55:17.886Z,15.28
2023-03-18T14:56:33.008Z,15.28
2023-03-18T14:57:35.126Z,15.28
2023-03-18T14:58:39.675Z,15.28
2023-03-18T14:59:41.756Z,15.28
2023-03-18T15:00:46.242Z,15.28
2023-03-18T15:01:48.380Z,15.28
2023-03-18T15:04:18.323Z,15.43
2023-03-18T15:05:21.046Z,15.30
2023-03-18T15:06:26.266Z,15.31
2023-03-18T15:08:50.056Z,15.47
2023-03-18T15:09:52.188Z,15.34
2023-03-18T15:10:55.080Z,15.37
2023-03-18T15:11:57.790Z,15.40
2023-03-18T15:14:28.213Z,15.63
2023-03-18T15:15:31.056Z,15.52
2023-03-18T15:16:33.941Z,15.59
2023-03-18T15:17:36.778Z,15.66
2023-03-18T15:18:39.671Z,15.73
2023-03-18T15:19:42.535Z,15.82
2023-03-18T15:20:48.022Z,15.87
2023-03-18T15:21:51.404Z,15.94
2023-03-18T15:22:53.539Z,15.98
2023-03-18T15:25:17.261Z,16.19
2023-03-18T15:26:29.373Z,16.08
2023-03-18T15:27:32.868Z,16.13
2023-03-18T15:28:35.080Z,16.16
2023-03-18T15:29:47.092Z,16.19
2023-03-18T15:30:54.747Z,16.22
2023-03-18T15:32:20.655Z,16.24
2023-03-18T15:33:26.909Z,16.26
2023-03-18T15:34:30.005Z,16.28
2023-03-18T15:35:33.637Z,16.25
2023-03-18T15:38:17.736Z,16.29
2023-03-18T15:40:35.057Z,16.15
2023-03-18T15:41:37.424Z,15.93
2023-03-18T15:42:40.564Z,15.91
2023-03-18T15:43:47.659Z,15.85
2023-03-18T15:44:53.448Z,15.79
2023-03-18T15:45:59.524Z,15.73
2023-03-18T15:47:14.313Z,15.67
2023-03-18T15:50:03.783Z,15.64
2023-03-18T15:51:11.051Z,15.41
2023-03-18T15:52:14.360Z,15.35
2023-03-18T15:53:27.929Z,15.29
2023-03-18T15:54:38.912Z,15.23
2023-03-18T15:55:50.491Z,15.18
2023-03-18T15:56:55.372Z,15.10
2023-03-18T15:57:59.174Z,15.03
2023-03-18T16:00:26.055Z,15.00
2023-03-18T16:01:28.379Z,14.80
2023-03-18T16:02:30.434Z,14.74
2023-03-18T16:03:34.898Z,14.69
2023-03-18T16:04:37.046Z,14.64
2023-03-18T16:05:39.688Z,14.57
2023-03-18T16:06:42.702Z,14.52
2023-03-18T16:07:45.942Z,14.47
2023-03-18T16:08:50.979Z,14.42
2023-03-18T16:09:53.625Z,14.37
2023-03-18T16:10:59.704Z,14.31
2023-03-18T16:12:06.247Z,14.24
2023-03-18T16:13:09.475Z,14.20
2023-03-18T16:14:17.046Z,14.13
2023-03-18T16:15:21.421Z,14.09
2023-03-18T16:16:27.257Z,14.04
2023-03-18T16:17:29.634Z,13.98
2023-03-18T16:18:32.318Z,13.91
2023-03-18T16:19:34.905Z,13.89
2023-03-18T16:20:38.084Z,13.84
2023-03-18T16:21:40.930Z,13.81
2023-03-18T16:22:43.331Z,13.76
2023-03-18T16:23:46.212Z,13.74
2023-03-18T16:24:48.941Z,13.71
2023-03-18T16:25:52.584Z,13.66
2023-03-18T16:26:56.153Z,13.64
2023-03-18T16:28:00.721Z,13.59
2023-03-18T16:29:07.417Z,13.56
2023-03-18T16:31:42.373Z,13.61
2023-03-18T16:32:46.677Z,13.42
2023-03-18T16:35:03.639Z,13.45
2023-03-18T16:36:13.286Z,13.26
2023-03-18T16:38:33.095Z,13.33
2023-03-18T16:39:53.021Z,13.16
2023-03-18T16:42:36.915Z,13.24
2023-03-18T16:49:49.791Z,13.05
2023-03-18T16:50:52.806Z,12.85
2023-03-18T16:51:55.183Z,12.84
2023-03-18T16:52:57.584Z,12.80
2023-03-18T16:53:59.874Z,12.77
2023-03-18T16:55:02.334Z,12.74
2023-03-18T16:57:31.489Z,12.79
2023-03-18T16:58:58.571Z,12.61
2023-03-18T16:59:47.209Z,12.59
2023-03-18T17:00:49.975Z,12.57
2023-03-18T17:01:55.281Z,12.54
2023-03-18T17:02:59.635Z,12.52
2023-03-18T17:04:19.915Z,12.48
2023-03-18T17:05:23.852Z,12.45
2023-03-18T17:06:26.886Z,12.42
2023-03-18T17:07:29.288Z,12.38
2023-03-18T17:08:32.414Z,12.36
2023-03-18T17:11:17.399Z,12.39
2023-03-18T17:12:21.364Z,12.21
2023-03-18T17:13:27.443Z,12.18
2023-03-18T17:14:40.083Z,12.14
2023-03-18T17:15:43.083Z,12.11
2023-03-18T17:16:46.188Z,12.08
2023-03-18T17:17:49.232Z,12.06
2023-03-18T17:18:52.120Z,12.03
2023-03-18T17:19:55.358Z,12.00
2023-03-18T17:20:58.434Z,11.98
2023-03-18T17:22:08.767Z,11.97
2023-03-18T17:23:22.901Z,11.94
2023-03-18T17:24:25.187Z,11.91
2023-03-18T17:25:29.527Z,11.89
2023-03-18T17:26:31.907Z,11.87
2023-03-18T17:29:03.856Z,11.94
2023-03-18T17:30:17.557Z,11.76
2023-03-18T17:31:20.026Z,11.74
2023-03-18T17:32:23.013Z,11.71
2023-03-18T17:33:30.854Z,11.69
2023-03-18T17:34:33.766Z,11.65
2023-03-18T17:37:03.106Z,11.69
2023-03-18T17:38:05.527Z,11.51
2023-03-18T17:39:08.337Z,11.50
2023-03-18T17:40:20.171Z,11.49
2023-03-18T17:41:23.126Z,11.48
2023-03-18T17:42:30.050Z,11.45
2023-03-18T17:43:36.924Z,11.43
2023-03-18T17:44:50.894Z,11.43
2023-03-18T17:45:57.002Z,11.40
2023-03-18T17:47:00.382Z,11.38
2023-03-18T17:48:18.328Z,11.34
2023-03-18T17:49:24.343Z,11.33
2023-03-18T17:50:27.810Z,11.33
2023-03-18T17:51:32.205Z,11.30
2023-03-18T17:52:38.015Z,11.30
2023-03-18T17:55:00.849Z,11.42
2023-03-18T17:56:08.439Z,11.26
2023-03-18T17:57:14.964Z,11.26
2023-03-18T17:58:20.610Z,11.26
2023-03-18T17:59:26.655Z,11.24
2023-03-18T18:00:29.657Z,11.20
2023-03-18T18:01:32.127Z,11.18
2023-03-18T18:02:37.205Z,11.14
2023-03-18T18:03:39.908Z,11.12
2023-03-18T18:04:42.771Z,11.10
2023-03-18T18:05:45.349Z,11.09
2023-03-18T18:06:49.077Z,11.06
2023-03-18T18:07:51.385Z,11.05
2023-03-18T18:08:55.592Z,11.14
2023-03-18T18:09:58.214Z,11.33
2023-03-18T18:11:24.316Z,11.55
2023-03-18T18:12:26.533Z,11.74
2023-03-18T18:13:32.295Z,11.97
2023-03-18T18:14:34.473Z,12.10
2023-03-18T18:15:36.511Z,12.21
2023-03-18T18:16:38.927Z,12.31
2023-03-18T18:17:41.393Z,12.38
2023-03-18T18:18:44.426Z,12.45
2023-03-18T18:19:46.499Z,12.48
2023-03-18T18:22:05.389Z,12.67
2023-03-18T18:23:10.555Z,12.53
2023-03-18T18:25:29.405Z,12.68
2023-03-18T18:26:34.309Z,12.53
2023-03-18T18:27:37.073Z,12.55
2023-03-18T18:28:45.339Z,12.57
2023-03-18T18:29:47.471Z,12.57
2023-03-18T18:30:51.677Z,12.60
2023-03-18T18:31:54.854Z,12.61
2023-03-18T18:33:01.928Z,12.62
2023-03-18T18:34:07.535Z,12.63
2023-03-18T18:35:22.088Z,12.63
2023-03-18T18:36:26.108Z,12.64
2023-03-18T18:37:40.456Z,12.66
2023-03-18T18:38:46.259Z,12.67
2023-03-18T18:39:49.484Z,12.67
2023-03-18T18:40:58.897Z,12.67
2023-03-18T18:43:14.514Z,12.78
2023-03-18T18:44:16.684Z,12.62
2023-03-18T18:45:19.656Z,12.63
2023-03-18T18:46:22.519Z,12.64
2023-03-18T18:47:24.663Z,12.64
2023-03-18T18:48:32.124Z,12.65
2023-03-18T18:49:34.255Z,12.64
2023-03-18T18:50:36.383Z,12.65
2023-03-18T18:51:40.337Z,12.65
2023-03-18T18:52:42.985Z,12.64
2023-03-18T18:53:49.438Z,12.64
2023-03-18T18:54:51.454Z,12.65
2023-03-18T18:55:56.034Z,12.63
2023-03-18T18:57:00.078Z,12.65
2023-03-18T18:58:04.864Z,12.64
2023-03-18T19:00:40.350Z,12.75
2023-03-18T19:01:45.344Z,12.59
2023-03-18T19:02:54.133Z,12.60
2023-03-18T19:03:59.145Z,12.60
2023-03-18T19:05:05.986Z,12.60
2023-03-18T19:07:39.251Z,12.70
2023-03-18T19:08:45.625Z,12.54
2023-03-18T19:09:49.212Z,12.55
2023-03-18T19:12:21.116Z,12.66
2023-03-18T19:13:29.598Z,12.49
2023-03-18T19:15:53.251Z,12.61
2023-03-18T19:16:58.376Z,12.45
2023-03-18T19:18:01.228Z,12.44
2023-03-18T19:19:04.330Z,12.46
2023-03-18T19:20:28.321Z,12.46
2023-03-18T19:21:30.618Z,12.46
2023-03-18T19:22:32.724Z,12.48
2023-03-18T19:23:36.220Z,12.46
2023-03-18T19:24:39.532Z,12.46
2023-03-18T19:25:42.853Z,12.45
2023-03-18T19:26:45.139Z,12.44
2023-03-18T19:27:49.212Z,12.44
2023-03-18T19:28:58.465Z,12.43
2023-03-18T19:29:59.507Z,12.43
2023-03-18T19:31:01.623Z,12.41
2023-03-18T19:32:04.477Z,12.40
2023-03-18T19:34:25.027Z,12.49
2023-03-18T19:35:28.246Z,12.33
2023-03-18T19:37:47.886Z,12.45
2023-03-18T19:38:51.008Z,12.27
2023-03-18T19:39:54.522Z,12.27
2023-03-18T19:40:56.933Z,12.26
2023-03-18T19:41:59.484Z,12.26
2023-03-18T19:43:01.695Z,12.27
2023-03-18T19:44:20.070Z,12.26
2023-03-18T19:45:22.760Z,12.27
2023-03-18T19:46:32.404Z,12.27
2023-03-18T19:47:34.634Z,12.25
2023-03-18T19:48:36.824Z,12.23
2023-03-18T19:49:39.016Z,12.23
2023-03-18T19:50:42.051Z,12.22
2023-03-18T19:51:44.874Z,12.20
2023-03-18T19:52:47.640Z,12.20
2023-03-18T19:53:50.021Z,12.21
2023-03-18T19:54:53.438Z,12.19
2023-03-18T19:55:55.837Z,12.19
2023-03-18T19:58:18.093Z,12.26
2023-03-18T19:59:25.254Z,12.09
2023-03-18T20:00:27.663Z,12.10
2023-03-18T20:01:30.525Z,12.10
2023-03-18T20:02:35.409Z,12.09
2023-03-18T20:03:37.639Z,12.09
2023-03-18T20:04:40.394Z,12.07
2023-03-18T20:05:42.370Z,12.08
2023-03-18T20:06:45.856Z,12.06
2023-03-18T20:07:49.171Z,12.06
2023-03-18T20:08:52.085Z,12.04
2023-03-18T20:09:55.510Z,12.05
2023-03-18T20:10:57.750Z,12.04
2023-03-18T20:11:59.951Z,12.03
2023-03-18T20:13:02.556Z,12.02
2023-03-18T20:14:25.978Z,12.02
2023-03-18T20:15:28.164Z,12.00
2023-03-18T20:16:30.699Z,12.00
2023-03-18T21:17:08.673Z,11.03
2023-03-18T21:18:13.997Z,10.86
2023-03-18T21:19:16.063Z,10.82
2023-03-18T21:20:23.329Z,10.79
2023-03-18T21:21:32.719Z,10.77
2023-03-18T21:22:35.971Z,10.77
2023-03-18T21:23:38.628Z,10.76
2023-03-18T21:24:45.339Z,10.76
2023-03-18T21:25:49.032Z,10.76
2023-03-18T21:27:03.838Z,10.76
2023-03-18T21:28:03.447Z,10.76
2023-03-18T21:29:09.866Z,10.76
2023-03-18T21:30:14.078Z,10.76
2023-03-18T21:31:29.224Z,10.77
2023-03-18T21:32:31.747Z,10.77
2023-03-18T21:33:34.955Z,10.77
2023-03-18T21:34:39.893Z,10.78
2023-03-18T21:35:43.242Z,10.79
2023-03-18T21:36:45.557Z,10.79
2023-03-18T21:37:47.712Z,10.79
2023-03-18T21:38:50.482Z,10.78
2023-03-18T21:39:53.357Z,10.79
2023-03-18T21:40:58.457Z,10.79
2023-03-18T21:42:00.447Z,10.78
2023-03-18T21:43:34.916Z,10.78
2023-03-18T21:44:36.938Z,10.78
2023-03-18T21:45:42.386Z,10.79
2023-03-18T21:46:46.678Z,10.80
2023-03-18T21:47:50.555Z,10.80
2023-03-18T21:48:55.019Z,10.79
2023-03-18T21:50:05.442Z,10.79
2023-03-18T21:51:11.483Z,10.80
2023-03-18T21:53:45.634Z,10.91
2023-03-18T21:54:56.125Z,10.77
2023-03-18T21:56:00.176Z,10.76
2023-03-18T21:58:27.340Z,10.89
2023-03-18T21:59:33.229Z,10.71
2023-03-18T22:00:36.017Z,10.72
2023-03-18T22:01:40.407Z,10.74
2023-03-18T22:02:44.806Z,10.74
2023-03-18T22:03:50.684Z,10.75
2023-03-18T22:04:54.260Z,10.75
2023-03-18T22:05:57.457Z,10.74
2023-03-18T22:07:12.691Z,10.75
2023-03-18T22:08:16.769Z,10.75
2023-03-18T22:09:28.371Z,10.74
2023-03-18T22:10:33.300Z,10.74
2023-03-18T22:11:40.386Z,10.74
2023-03-18T22:12:47.499Z,10.73
2023-03-18T22:13:50.228Z,10.73
2023-03-18T22:14:56.825Z,10.74
2023-03-18T22:16:04.449Z,10.73
2023-03-18T22:18:45.858Z,10.85
2023-03-18T22:19:56.669Z,10.69
2023-03-18T22:21:00.139Z,10.67
2023-03-18T22:22:02.508Z,10.69
2023-03-18T22:23:18.936Z,10.69
2023-03-18T22:24:21.265Z,10.69
2023-03-18T22:25:36.488Z,10.69
2023-03-18T22:26:41.970Z,10.68
2023-03-18T22:27:44.240Z,10.69
2023-03-18T22:28:49.493Z,10.67
2023-03-18T22:29:57.983Z,10.67
2023-03-18T22:31:08.547Z,10.67
2023-03-18T22:33:35.671Z,10.66
2023-03-18T22:34:41.465Z,10.66
2023-03-18T22:37:01.741Z,10.63
2023-03-18T22:41:28.795Z,10.60
2023-03-18T22:42:34.045Z,10.60
2023-03-18T22:43:37.423Z,10.61
2023-03-18T22:44:39.650Z,10.61
2023-03-18T22:45:42.248Z,10.60
2023-03-18T22:46:46.662Z,10.61
2023-03-18T22:47:54.923Z,10.61
2023-03-18T22:49:00.574Z,10.60
2023-03-18T22:50:06.338Z,10.60
2023-03-18T22:51:34.268Z,10.59
2023-03-18T22:52:36.432Z,10.59
2023-03-18T22:53:40.008Z,10.60
2023-03-18T22:54:48.999Z,10.60
2023-03-18T22:55:56.155Z,10.61
2023-03-18T22:57:00.193Z,10.60
2023-03-18T22:58:02.910Z,10.59
2023-03-18T22:59:11.554Z,10.59
2023-03-18T23:01:33.113Z,10.69
2023-03-18T23:02:37.462Z,10.53
2023-03-18T23:03:41.863Z,10.54
2023-03-18T23:04:47.180Z,10.54
2023-03-18T23:05:58.890Z,10.55
2023-03-18T23:07:06.572Z,10.55
2023-03-18T23:08:08.836Z,10.55
2023-03-18T23:09:10.858Z,10.55
2023-03-18T23:10:22.393Z,10.55
2023-03-18T23:11:24.637Z,10.58
2023-03-18T23:12:30.356Z,10.56
2023-03-18T23:13:35.338Z,10.57
2023-03-18T23:14:38.541Z,10.57
2023-03-18T23:15:40.765Z,10.58
2023-03-18T23:16:42.882Z,10.58
2023-03-18T23:17:45.335Z,10.59
2023-03-18T23:18:49.300Z,10.59
2023-03-18T23:19:53.829Z,10.59
2023-03-18T23:20:57.628Z,10.59
2023-03-18T23:22:00.041Z,10.59
2023-03-18T23:23:03.807Z,10.59
2023-03-18T23:24:15.112Z,10.61
2023-03-18T23:25:18.078Z,10.62
2023-03-18T23:26:26.438Z,10.61
2023-03-18T23:27:31.493Z,10.62
2023-03-18T23:28:44.161Z,10.63
2023-03-18T23:29:38.986Z,10.62
2023-03-18T23:30:42.588Z,10.62
2023-03-18T23:31:56.908Z,10.62
2023-03-18T23:33:01.449Z,10.61
2023-03-18T23:34:07.426Z,10.62
2023-03-18T23:35:12.576Z,10.63
2023-03-18T23:36:17.581Z,10.62
2023-03-18T23:37:23.321Z,10.63
2023-03-18T23:38:32.517Z,10.63
2023-03-18T23:39:36.609Z,10.63
2023-03-18T23:40:38.908Z,10.62
2023-03-18T23:41:44.450Z,10.64
2023-03-18T23:42:53.376Z,10.63
2023-03-18T23:44:02.248Z,10.63
2023-03-18T23:45:13.202Z,10.63
2023-03-18T23:46:18.094Z,10.65
2023-03-18T23:47:21.050Z,10.64
2023-03-18T23:48:25.010Z,10.64
2023-03-18T23:49:27.295Z,10.65
2023-03-18T23:50:32.711Z,10.65
2023-03-18T23:51:34.855Z,10.66
2023-03-18T23:52:36.981Z,10.65
2023-03-18T23:53:39.276Z,10.66
2023-03-18T23:54:42.387Z,10.67
2023-03-18T23:55:47.966Z,10.67
2023-03-18T23:56:55.464Z,10.66
2023-03-18T23:57:57.668Z,10.68
2023-03-18T23:59:02.785Z,10.66
